BKT weather

Allen C Perkinson Blackstone Army Air Field
Blackstone, Virginia, United States

Public forecast

Using degrees Fahrenheit for public forecast. Weather courtesy of forecast.io.

Current aviation weather report (METAR) for Allen C Perkinson Blackstone Army Air Field

Retrieved 2020/03/30 10:15 UTC (13 minutes ago):

KBKT 301015Z AUTO 26004KT 10SM CLR 17/03 A2997 RMK AO1 T01670028

Closest aviation forecast (TAF) to Allen C Perkinson Blackstone Army Air Field

Closest forecast is Richmond International Airport, 40.0 nm (74.0 km) NE. Retrieved 2020/03/30 06:00 UTC (4 hours ago):

TAF KRIC 300557Z 3006/3106 26007KT P6SM BKN250 FM301400 26012G20KT P6SM SCT250 FM301700 27017G27KT P6SM SCT250 FM310000 29008KT P6SM SCT250 FM310200 33007KT P6SM SKC FM310400 36005KT P6SM SKC